createdAt,value
2023-03-22T00:00:00.464Z,8.30
2023-03-22T00:02:27.827Z,8.30
2023-03-22T00:04:55.786Z,8.30
2023-03-22T00:07:22.869Z,8.30
2023-03-22T00:09:49.971Z,8.30
2023-03-22T00:12:17.089Z,8.20
2023-03-22T00:14:44.225Z,8.20
2023-03-22T00:17:11.847Z,8.20
2023-03-22T00:19:42.165Z,8.20
2023-03-22T00:22:09.478Z,8.10
2023-03-22T00:24:37.554Z,8.10
2023-03-22T00:27:04.637Z,8.10
2023-03-22T00:29:31.652Z,8.00
2023-03-22T00:31:58.674Z,8.00
2023-03-22T00:34:27.143Z,7.90
2023-03-22T00:36:56.303Z,7.90
2023-03-22T00:39:23.272Z,7.80
2023-03-22T00:41:51.296Z,7.70
2023-03-22T00:44:19.101Z,7.60
2023-03-22T00:46:46.295Z,7.50
2023-03-22T00:49:14.128Z,7.40
2023-03-22T00:51:41.162Z,7.30
2023-03-22T00:54:08.350Z,7.30
2023-03-22T00:56:37.667Z,7.30
2023-03-22T00:59:13.689Z,7.20
2023-03-22T01:01:42.436Z,7.00
2023-03-22T01:04:09.880Z,7.00
2023-03-22T01:06:37.117Z,7.00
2023-03-22T01:09:05.108Z,7.00
2023-03-22T01:11:32.156Z,6.90
2023-03-22T01:13:59.738Z,6.90
2023-03-22T01:16:26.837Z,6.90
2023-03-22T01:18:54.144Z,6.90
2023-03-22T01:21:21.940Z,7.00
2023-03-22T01:23:50.907Z,7.00
2023-03-22T01:26:17.878Z,7.00
2023-03-22T01:28:45.042Z,7.00
2023-03-22T01:31:12.145Z,7.00
2023-03-22T01:33:39.203Z,6.90
2023-03-22T01:36:06.988Z,7.00
2023-03-22T01:38:35.944Z,7.00
2023-03-22T01:41:03.175Z,7.00
2023-03-22T01:43:33.685Z,7.00
2023-03-22T01:46:01.066Z,7.00
2023-03-22T01:48:34.821Z,6.80
2023-03-22T01:51:19.077Z,6.80
2023-03-22T01:54:13.108Z,6.80
2023-03-22T01:56:41.981Z,6.80
2023-03-22T01:59:15.672Z,6.80
2023-03-22T02:02:05.894Z,6.70
2023-03-22T02:04:39.332Z,6.60
2023-03-22T02:07:15.437Z,6.50
2023-03-22T02:09:46.135Z,6.50
2023-03-22T02:12:13.988Z,6.50
2023-03-22T02:15:08.931Z,6.60
2023-03-22T02:18:27.356Z,6.60
2023-03-22T02:21:27.177Z,6.60
2023-03-22T02:24:16.000Z,6.60
2023-03-22T02:27:16.258Z,6.60
2023-03-22T02:29:49.368Z,6.60
2023-03-22T02:32:38.045Z,6.60
2023-03-22T02:35:40.053Z,6.60
2023-03-22T02:38:21.803Z,6.60
2023-03-22T02:40:54.867Z,6.60
2023-03-22T02:43:24.915Z,6.50
2023-03-22T02:46:18.164Z,6.40
2023-03-22T02:49:10.718Z,6.20
2023-03-22T02:51:57.988Z,5.90
2023-03-22T02:54:44.585Z,5.80
2023-03-22T02:57:25.979Z,5.70
2023-03-22T02:59:58.312Z,5.70
2023-03-22T03:02:28.244Z,5.70
2023-03-22T03:04:57.164Z,5.60
2023-03-22T03:07:29.008Z,5.40
2023-03-22T03:09:57.135Z,5.30
2023-03-22T03:12:26.257Z,5.30
2023-03-22T03:14:55.335Z,5.40
2023-03-22T03:18:05.899Z,5.40
2023-03-22T03:20:49.192Z,5.40
2023-03-22T03:23:43.513Z,5.40
2023-03-22T03:26:22.699Z,5.40
2023-03-22T03:29:11.527Z,5.50
2023-03-22T03:31:58.022Z,5.50
2023-03-22T03:34:27.180Z,5.50
2023-03-22T03:37:15.190Z,5.50
2023-03-22T03:39:48.387Z,5.50
2023-03-22T03:42:17.935Z,5.50
2023-03-22T03:44:46.032Z,5.60
2023-03-22T03:47:14.265Z,5.60
2023-03-22T03:49:42.192Z,5.60
2023-03-22T03:52:09.395Z,5.50
2023-03-22T03:54:36.820Z,5.60
2023-03-22T03:57:06.504Z,5.50
2023-03-22T03:59:34.042Z,5.30
2023-03-22T04:02:07.375Z,5.20
2023-03-22T04:04:34.961Z,5.00
2023-03-22T04:07:05.694Z,5.00
2023-03-22T04:09:38.052Z,4.90
2023-03-22T04:12:15.004Z,4.90
2023-03-22T04:14:46.409Z,4.80
2023-03-22T04:17:22.180Z,4.80
2023-03-22T04:19:49.591Z,4.80
2023-03-22T04:22:18.604Z,4.80
2023-03-22T04:24:50.169Z,4.90
2023-03-22T04:27:21.326Z,4.90
2023-03-22T04:30:01.106Z,4.90
2023-03-22T04:32:47.507Z,4.90
2023-03-22T04:35:16.556Z,4.90
2023-03-22T04:37:43.688Z,5.00
2023-03-22T04:40:17.011Z,5.00
2023-03-22T04:43:04.109Z,5.00
2023-03-22T04:45:55.202Z,5.00
2023-03-22T04:48:28.173Z,5.00
2023-03-22T04:50:57.383Z,5.00
2023-03-22T04:53:27.391Z,5.00
2023-03-22T04:55:59.221Z,5.00
2023-03-22T04:58:28.344Z,5.00
2023-03-22T05:00:55.410Z,5.00
2023-03-22T05:03:23.609Z,5.00
2023-03-22T05:05:53.561Z,5.00
2023-03-22T05:08:25.018Z,5.00
2023-03-22T05:10:54.934Z,4.90
2023-03-22T05:13:24.428Z,5.00
2023-03-22T05:15:52.327Z,5.10
2023-03-22T05:18:26.398Z,5.10
2023-03-22T05:20:57.435Z,5.10
2023-03-22T05:23:25.700Z,5.10
2023-03-22T05:25:58.357Z,5.10
2023-03-22T05:28:28.761Z,5.20
2023-03-22T05:31:04.037Z,5.20
2023-03-22T05:33:44.144Z,5.40
2023-03-22T05:36:14.049Z,5.40
2023-03-22T05:39:00.928Z,5.40
2023-03-22T05:41:31.683Z,5.40
2023-03-22T05:43:58.989Z,5.50
2023-03-22T05:46:26.288Z,5.60
2023-03-22T05:49:13.607Z,5.60
2023-03-22T05:51:42.727Z,5.60
2023-03-22T05:54:12.295Z,5.60
2023-03-22T05:56:47.411Z,5.60
2023-03-22T05:59:15.017Z,5.60
2023-03-22T06:01:42.143Z,5.70
2023-03-22T06:04:21.186Z,5.70
2023-03-22T06:07:00.926Z,5.90
2023-03-22T06:09:38.155Z,5.90
2023-03-22T06:12:08.743Z,6.00
2023-03-22T06:14:36.532Z,6.20
2023-03-22T06:17:35.623Z,6.30
2023-03-22T06:20:10.350Z,6.40
2023-03-22T06:22:39.336Z,6.50
2023-03-22T06:25:08.658Z,6.60
2023-03-22T06:27:40.603Z,6.80
2023-03-22T06:30:08.489Z,6.80
2023-03-22T06:32:47.288Z,7.00
2023-03-22T06:35:15.311Z,7.00
2023-03-22T06:37:42.747Z,7.00
2023-03-22T06:40:10.486Z,7.10
2023-03-22T06:42:37.733Z,7.20
2023-03-22T06:45:14.710Z,7.30
2023-03-22T06:47:44.777Z,7.50
2023-03-22T06:50:26.368Z,7.60
2023-03-22T06:53:01.743Z,7.60
2023-03-22T06:55:33.288Z,7.30
2023-03-22T06:58:11.375Z,7.20
2023-03-22T07:00:39.564Z,7.20
2023-03-22T07:03:11.514Z,7.10
2023-03-22T07:05:46.468Z,7.20
2023-03-22T07:08:13.607Z,7.40
2023-03-22T07:10:51.214Z,7.50
2023-03-22T07:13:21.640Z,7.60
2023-03-22T07:15:54.830Z,7.80
2023-03-22T07:18:40.701Z,8.00
2023-03-22T07:21:08.345Z,7.90
2023-03-22T07:23:37.594Z,8.00
2023-03-22T07:26:09.732Z,8.00
2023-03-22T07:28:41.615Z,8.20
2023-03-22T07:31:12.814Z,8.20
2023-03-22T07:33:49.809Z,8.30
2023-03-22T07:36:17.027Z,8.40
2023-03-22T07:38:44.374Z,8.60
2023-03-22T07:41:17.777Z,8.90
2023-03-22T07:44:17.202Z,9.30
2023-03-22T07:46:52.901Z,9.60
2023-03-22T07:49:36.986Z,9.70
2023-03-22T07:52:09.758Z,9.90
2023-03-22T07:54:38.125Z,10.40
2023-03-22T07:57:08.599Z,11.30
2023-03-22T07:59:41.015Z,11.70
2023-03-22T08:02:11.304Z,11.50
2023-03-22T08:04:48.538Z,11.30
2023-03-22T08:07:25.304Z,11.70
2023-03-22T08:09:54.727Z,12.00
2023-03-22T08:12:21.914Z,11.90
2023-03-22T08:14:57.297Z,12.10
2023-03-22T08:17:26.804Z,12.60
2023-03-22T08:19:56.549Z,12.40
2023-03-22T08:22:36.890Z,12.20
2023-03-22T08:25:24.637Z,12.40
2023-03-22T08:27:53.722Z,12.30
2023-03-22T08:30:22.433Z,12.10
2023-03-22T08:32:49.768Z,12.10
2023-03-22T08:35:17.099Z,12.10
2023-03-22T08:37:44.668Z,12.10
2023-03-22T08:40:12.370Z,12.50
2023-03-22T08:43:05.510Z,12.80
2023-03-22T08:45:33.018Z,13.00
2023-03-22T08:48:08.502Z,13.40
2023-03-22T08:50:53.827Z,13.90
2023-03-22T08:53:28.941Z,14.50
2023-03-22T08:56:15.036Z,14.60
2023-03-22T08:58:52.206Z,14.50
2023-03-22T09:01:32.974Z,14.30
2023-03-22T09:04:03.945Z,14.20
2023-03-22T09:06:31.214Z,13.80
2023-03-22T09:08:58.594Z,13.70
2023-03-22T09:11:27.802Z,13.70
2023-03-22T09:13:55.179Z,13.50
2023-03-22T09:16:23.014Z,13.20
2023-03-22T09:18:50.454Z,13.00
2023-03-22T09:21:21.944Z,12.80
2023-03-22T09:23:59.231Z,12.70
2023-03-22T09:26:37.863Z,12.70
2023-03-22T09:29:06.318Z,12.80
2023-03-22T09:31:34.354Z,12.70
2023-03-22T09:34:15.809Z,12.80
2023-03-22T09:36:43.052Z,12.90
2023-03-22T09:39:10.745Z,13.10
2023-03-22T09:41:45.104Z,13.10
2023-03-22T09:44:18.406Z,13.20
2023-03-22T09:46:50.062Z,13.30
2023-03-22T09:49:21.043Z,13.90
2023-03-22T09:51:56.044Z,14.30
2023-03-22T09:54:39.469Z,14.90
2023-03-22T09:57:39.069Z,15.00
2023-03-22T10:00:25.495Z,15.00
2023-03-22T10:03:17.413Z,15.10
2023-03-22T10:06:08.451Z,15.10
2023-03-22T10:09:16.057Z,15.20
2023-03-22T10:12:05.051Z,15.10
2023-03-22T10:15:27.263Z,14.90
2023-03-22T10:17:56.365Z,14.70
2023-03-22T10:20:57.218Z,15.00
2023-03-22T10:23:37.275Z,15.30
2023-03-22T10:26:06.619Z,15.40
2023-03-22T10:28:44.246Z,15.40
2023-03-22T10:31:18.343Z,15.40
2023-03-22T10:33:50.604Z,15.40
2023-03-22T10:36:22.429Z,15.40
2023-03-22T10:38:55.212Z,15.40
2023-03-22T10:41:24.442Z,15.40
2023-03-22T10:43:58.882Z,15.50
2023-03-22T10:46:28.950Z,15.50
2023-03-22T10:48:59.865Z,15.50
2023-03-22T10:51:34.520Z,15.50
2023-03-22T10:54:03.039Z,15.60
2023-03-22T10:56:30.446Z,15.70
2023-03-22T10:58:57.534Z,15.90
2023-03-22T11:01:31.948Z,16.20
2023-03-22T11:04:10.667Z,16.20
2023-03-22T11:06:56.522Z,16.30
2023-03-22T11:09:24.894Z,16.50
2023-03-22T11:11:54.675Z,16.90
2023-03-22T11:14:35.725Z,17.30
2023-03-22T11:17:14.990Z,17.50
2023-03-22T11:19:58.302Z,17.50
2023-03-22T11:22:26.900Z,17.00
2023-03-22T11:24:56.889Z,17.10
2023-03-22T11:27:27.668Z,17.20
2023-03-22T11:30:00.442Z,17.10
2023-03-22T11:32:40.803Z,16.90
2023-03-22T11:35:25.709Z,16.80
2023-03-22T11:37:54.850Z,16.80
2023-03-22T11:40:30.887Z,16.80
2023-03-22T11:43:33.115Z,16.90
2023-03-22T11:46:01.391Z,16.90
2023-03-22T11:48:31.943Z,16.60
2023-03-22T11:51:08.793Z,16.60
2023-03-22T11:53:40.606Z,16.70
2023-03-22T11:56:10.824Z,16.90
2023-03-22T11:58:42.286Z,17.30
2023-03-22T12:01:16.858Z,17.60
2023-03-22T12:03:46.136Z,17.60
2023-03-22T12:06:27.233Z,17.70
2023-03-22T12:09:07.231Z,17.90
2023-03-22T12:11:39.513Z,18.10
2023-03-22T12:14:22.381Z,18.30
2023-03-22T12:17:03.104Z,18.40
2023-03-22T12:19:45.971Z,18.00
2023-03-22T12:22:23.743Z,17.90
2023-03-22T12:24:52.785Z,17.90
2023-03-22T12:27:31.373Z,17.90
2023-03-22T12:30:29.714Z,17.80
2023-03-22T12:33:37.272Z,17.50
2023-03-22T12:36:07.291Z,17.60
2023-03-22T12:38:49.124Z,17.60
2023-03-22T12:41:25.418Z,17.60
2023-03-22T12:43:56.888Z,17.40
2023-03-22T12:46:28.849Z,17.60
2023-03-22T12:49:32.781Z,17.90
2023-03-22T12:52:13.634Z,18.00
2023-03-22T12:54:42.242Z,18.30
2023-03-22T12:57:10.976Z,18.00
2023-03-22T12:59:44.766Z,18.00
2023-03-22T13:02:17.909Z,18.00
2023-03-22T13:04:50.872Z,18.30
2023-03-22T13:08:03.480Z,18.50
2023-03-22T13:10:34.321Z,18.70
2023-03-22T13:13:24.389Z,18.70
2023-03-22T13:16:02.929Z,18.80
2023-03-22T13:18:38.528Z,18.50
2023-03-22T13:21:09.701Z,18.50
2023-03-22T13:23:37.884Z,18.60
2023-03-22T13:26:06.198Z,18.70
2023-03-22T13:28:37.477Z,18.30
2023-03-22T13:31:05.646Z,18.40
2023-03-22T13:33:36.025Z,18.40
2023-03-22T13:36:23.239Z,17.90
2023-03-22T13:38:57.882Z,17.90
2023-03-22T13:41:31.540Z,18.00
2023-03-22T13:44:01.519Z,17.90
2023-03-22T13:46:44.826Z,17.90
2023-03-22T13:49:53.333Z,18.20
2023-03-22T13:52:36.813Z,18.20
2023-03-22T13:55:13.604Z,18.00
2023-03-22T13:57:47.795Z,18.00
2023-03-22T14:00:36.190Z,18.00
2023-03-22T14:03:17.319Z,17.90
2023-03-22T14:05:47.362Z,17.90
2023-03-22T14:08:22.205Z,17.70
2023-03-22T14:10:56.609Z,17.60
2023-03-22T14:13:46.564Z,17.60
2023-03-22T14:16:33.991Z,17.70
2023-03-22T14:19:02.837Z,17.70
2023-03-22T14:21:42.281Z,17.70
